aviador You're here:

KHKS Decoded Metar

JACKSON/HAWKINS in MS, USA
Report Time2017-07-22 01:53:00
UTC Time2017-07-22 02:34:04
Flight Rules vfr VFR
Wind110° at 03 kt
W.Decomp.*RWY 11: 3.0 kt HW -0 kt LCW
RWY 16: 1.9 kt HW 2.3 kt LCW
W.Rank110° ranks 16
Current wind is below 110° avg. (5.6)
Visibility9999 m
Phenomena:Light Rain
Clouds:Scattered 110 Hf
Expected CloudBase > 400 ft AGL from Temp-Dew spread
CeilingNone
Temp27°C (ISA +13)
Dew Point26°C (94% RH)
Heat Index31.2°C
QNH1016 hPa
Density Alt2,159 ft
Elevation354 ft
Report Wrong Elevation
Raw Report
KHKS 220153Z 11003KT 10SM -RA SCT110 27/26 A3001 RMK AO2 RAB47
SLP152 P0000 T02720256=

Extra information for KHKS:More info

Metar Taf Metar & Taf Last 4 Metars F.Rules Stats Wind Profile Meteogram Temp Stats Airport Information Weather charts Add Link Nearby VenuesMetar ALERT Operation Metar Decoded Social comments

AIRNAV info for KHKS